Sturgeon Bay, WI

5:15 PM CST on March 02, 2015 (GMT -0600)
Door County Cherryland | Change Station
CLOSE
Current Station
Airport
Location: Sturgeon Bay,
Elevation: 725 ft
Nearby Weather Stations
Active Advisory: Winter Weather Advisory

Elev 725 ft 44.84 °N, 87.42 °W | Updated 20 minutes ago

Clear
Clear
25 °F
Feels Like 16 °F
N
8
Wind Variable Wind from South

Today
High -- | Low -- °F
--% Chance of Precip.
Yesterday
High -- | Low -- °F
Precip. -- in
6:25 AM 5:38 PM
Waxing Gibbous, 93% visible
Pressure 30.37 in
Visibility 10.0 miles
Clouds Clear
Windchill 16 °F
Dew Point 9 °F
Humidity 50%
Rainfall 0.00 in
Snow Depth Not available.
UV 0 out of 12
Pollen .30 out of 12
Air Quality Not available.
Flu Activity Not available.
METAR KSUE 022255Z AUTO 17007KT 10SM CLR M04/M13 A3037 RMK AO1

More Conditions Fewer Conditions

Pressure 30.37 in
Visibility 10.0 miles
Clouds Clear
Windchill 16 °F
Dew Point 9 °F
Humidity 50%
Rainfall 0.00 in
Snow Depth Not available.
UV 0 out of 12
Pollen .30 out of 12
Air Quality Not available.
Flu Activity Not available.
METAR KSUE 022255Z AUTO 17007KT 10SM CLR M04/M13 A3037 RMK AO1

More Conditions Fewer Conditions

10-Day Weather Forecast

Almanac

Astronomy

Mar. 02, 2015 Rise Set
Actual Time
Civil Twilight
Nautical Twilight
Astronomical Twilight
Moon
Length of Visible Light
Length of Day
Tomorrow will be .
, % of the Moon is Illuminated

Today's Extremes

State Highs State Lows

Community

WunderPhotos

Upload Photos

1,801,995 photos uploaded!

WunderBlogs® & News

Nearby

Air Quality

  Air Quality AQ Index Pollutant
Not available.

Snow Depth

Station Depth Elevation

Earthquake Activity

City Distance Mag. Time & Date
Minimum magnitude displayed is 2.5.

Coastal Water Temperatures

Place Temperature

Nearby Weather Stations

Winter Weather Advisory
Statement as of 3:26 PM CST on March 02, 2015

... Winter Weather Advisory remains in effect from 6 am to 6 PM
CST Tuesday...

* snow is expected to develop toward daybreak Tuesday... then
increase in intensity during the morning. The snow is expected
to taper off in the afternoon.

* Snow accumulations of 3 to 4 inches are anticipated.

* Travel conditions may become hazardous due to snow covered roads
and reduced visibility. Travel will likely be impacted for the
morning commute... especially in the Fox Valley.

Precautionary/preparedness actions...

A Winter Weather Advisory for snow means that periods of snow
will cause some travel difficulties. Be prepared for snow covered
roads and limited visibilities... and use caution while driving.
The latest Wisconsin Road conditions can be obtained by calling
511.


Bersch